sensor_id;sensor_type;location;lat;lon;timestamp;pressure;altitude;pressure_sealevel;temperature;humidity
51099;BME280;37146;48.210;16.234;2023-06-26T00:01:58;98851.09;;;14.23;100.00
51099;BME280;37146;48.210;16.234;2023-06-26T00:04:23;98849.50;;;14.46;100.00
51099;BME280;37146;48.210;16.234;2023-06-26T00:06:48;98849.59;;;14.32;100.00
51099;BME280;37146;48.210;16.234;2023-06-26T00:09:14;98860.16;;;14.48;100.00
51099;BME280;37146;48.210;16.234;2023-06-26T00:11:39;98859.94;;;14.38;100.00
51099;BME280;37146;48.210;16.234;2023-06-26T00:14:04;98860.16;;;14.35;100.00
51099;BME280;37146;48.210;16.234;2023-06-26T00:16:30;98858.97;;;14.26;100.00
51099;BME280;37146;48.210;16.234;2023-06-26T00:18:56;98864.91;;;14.31;100.00
51099;BME280;37146;48.210;16.234;2023-06-26T00:21:21;98869.19;;;14.47;100.00
51099;BME280;37146;48.210;16.234;2023-06-26T00:23:46;98867.16;;;14.37;100.00
51099;BME280;37146;48.210;16.234;2023-06-26T00:26:11;98869.19;;;14.21;100.00
51099;BME280;37146;48.210;16.234;2023-06-26T00:28:37;98862.53;;;14.27;100.00
51099;BME280;37146;48.210;16.234;2023-06-26T00:31:02;98866.63;;;14.32;100.00
51099;BME280;37146;48.210;16.234;2023-06-26T00:33:28;98865.53;;;14.48;100.00
51099;BME280;37146;48.210;16.234;2023-06-26T00:35:53;98861.47;;;14.55;100.00
51099;BME280;37146;48.210;16.234;2023-06-26T00:38:18;98857.38;;;14.49;100.00
51099;BME280;37146;48.210;16.234;2023-06-26T00:40:43;98859.06;;;14.37;100.00
51099;BME280;37146;48.210;16.234;2023-06-26T00:43:09;98861.00;;;14.35;100.00
51099;BME280;37146;48.210;16.234;2023-06-26T00:45:34;98860.38;;;14.19;100.00
51099;BME280;37146;48.210;16.234;2023-06-26T00:47:59;98853.78;;;14.10;100.00
51099;BME280;37146;48.210;16.234;2023-06-26T00:50:24;98860.88;;;13.98;100.00
51099;BME280;37146;48.210;16.234;2023-06-26T00:52:50;98855.81;;;13.94;100.00
51099;BME280;37146;48.210;16.234;2023-06-26T00:55:15;98852.25;;;13.93;100.00
51099;BME280;37146;48.210;16.234;2023-06-26T00:57:40;98847.63;;;13.95;100.00
51099;BME280;37146;48.210;16.234;2023-06-26T01:00:06;98853.66;;;14.12;100.00
51099;BME280;37146;48.210;16.234;2023-06-26T01:02:31;98844.88;;;14.10;100.00
51099;BME280;37146;48.210;16.234;2023-06-26T01:04:59;98847.56;;;14.10;100.00
51099;BME280;37146;48.210;16.234;2023-06-26T01:07:24;98846.03;;;14.05;100.00
51099;BME280;37146;48.210;16.234;2023-06-26T01:09:50;98837.31;;;14.15;100.00
51099;BME280;37146;48.210;16.234;2023-06-26T01:12:15;98842.44;;;13.92;100.00
51099;BME280;37146;48.210;16.234;2023-06-26T01:14:40;98837.72;;;13.83;100.00
51099;BME280;37146;48.210;16.234;2023-06-26T01:17:05;98843.72;;;13.73;100.00
51099;BME280;37146;48.210;16.234;2023-06-26T01:19:32;98835.22;;;13.80;100.00
51099;BME280;37146;48.210;16.234;2023-06-26T01:24:33;98836.22;;;13.91;100.00
51099;BME280;37146;48.210;16.234;2023-06-26T01:27:01;98836.19;;;13.79;100.00
51099;BME280;37146;48.210;16.234;2023-06-26T01:29:28;98832.34;;;13.83;100.00
51099;BME280;37146;48.210;16.234;2023-06-26T01:31:53;98837.91;;;13.80;100.00
51099;BME280;37146;48.210;16.234;2023-06-26T01:34:19;98831.44;;;13.69;100.00
51099;BME280;37146;48.210;16.234;2023-06-26T01:36:45;98829.50;;;13.71;100.00
51099;BME280;37146;48.210;16.234;2023-06-26T01:39:12;98836.28;;;13.64;100.00
51099;BME280;37146;48.210;16.234;2023-06-26T01:41:37;98831.59;;;13.53;100.00
51099;BME280;37146;48.210;16.234;2023-06-26T01:46:39;98826.81;;;13.71;100.00
51099;BME280;37146;48.210;16.234;2023-06-26T01:51:31;98827.44;;;13.62;100.00
51099;BME280;37146;48.210;16.234;2023-06-26T01:53:57;98817.91;;;13.71;100.00
51099;BME280;37146;48.210;16.234;2023-06-26T01:56:24;98820.50;;;13.72;100.00
51099;BME280;37146;48.210;16.234;2023-06-26T01:58:49;98814.53;;;13.67;100.00
51099;BME280;37146;48.210;16.234;2023-06-26T02:01:18;98812.63;;;13.69;100.00
51099;BME280;37146;48.210;16.234;2023-06-26T02:03:43;98819.38;;;13.62;100.00
51099;BME280;37146;48.210;16.234;2023-06-26T02:06:08;98817.13;;;13.56;100.00
51099;BME280;37146;48.210;16.234;2023-06-26T02:08:34;98812.09;;;13.64;100.00
51099;BME280;37146;48.210;16.234;2023-06-26T02:10:59;98819.81;;;13.56;100.00
51099;BME280;37146;48.210;16.234;2023-06-26T02:13:24;98812.25;;;13.48;100.00
51099;BME280;37146;48.210;16.234;2023-06-26T02:15:49;98822.34;;;13.44;100.00
51099;BME280;37146;48.210;16.234;2023-06-26T02:18:15;98818.03;;;13.42;100.00
51099;BME280;37146;48.210;16.234;2023-06-26T02:20:40;98819.09;;;13.39;100.00
51099;BME280;37146;48.210;16.234;2023-06-26T02:23:05;98813.88;;;13.51;100.00
51099;BME280;37146;48.210;16.234;2023-06-26T02:25:30;98819.69;;;13.44;100.00
51099;BME280;37146;48.210;16.234;2023-06-26T02:27:55;98822.88;;;13.22;100.00
51099;BME280;37146;48.210;16.234;2023-06-26T02:30:21;98822.56;;;13.41;100.00
51099;BME280;37146;48.210;16.234;2023-06-26T02:32:46;98823.22;;;13.30;100.00
51099;BME280;37146;48.210;16.234;2023-06-26T02:35:11;98820.44;;;13.32;100.00
51099;BME280;37146;48.210;16.234;2023-06-26T02:37:36;98821.00;;;13.37;100.00
51099;BME280;37146;48.210;16.234;2023-06-26T02:40:02;98826.75;;;13.45;100.00
51099;BME280;37146;48.210;16.234;2023-06-26T02:42:28;98822.13;;;13.48;100.00
51099;BME280;37146;48.210;16.234;2023-06-26T02:44:53;98829.84;;;13.39;100.00
51099;BME280;37146;48.210;16.234;2023-06-26T02:47:19;98830.81;;;13.24;100.00
51099;BME280;37146;48.210;16.234;2023-06-26T02:49:44;98834.50;;;13.23;100.00
51099;BME280;37146;48.210;16.234;2023-06-26T02:52:09;98827.00;;;13.13;100.00
51099;BME280;37146;48.210;16.234;2023-06-26T02:54:35;98822.59;;;13.12;100.00
51099;BME280;37146;48.210;16.234;2023-06-26T02:57:00;98828.06;;;13.25;100.00
51099;BME280;37146;48.210;16.234;2023-06-26T02:59:25;98825.03;;;13.17;100.00
51099;BME280;37146;48.210;16.234;2023-06-26T03:01:51;98833.63;;;13.22;100.00
51099;BME280;37146;48.210;16.234;2023-06-26T03:04:16;98831.28;;;13.30;100.00
51099;BME280;37146;48.210;16.234;2023-06-26T03:06:42;98839.75;;;13.24;100.00
51099;BME280;37146;48.210;16.234;2023-06-26T03:09:08;98832.31;;;13.15;100.00
51099;BME280;37146;48.210;16.234;2023-06-26T03:11:33;98835.66;;;13.19;100.00
51099;BME280;37146;48.210;16.234;2023-06-26T03:13:58;98838.69;;;13.27;100.00
51099;BME280;37146;48.210;16.234;2023-06-26T03:16:23;98841.88;;;13.19;100.00
51099;BME280;37146;48.210;16.234;2023-06-26T03:18:48;98837.84;;;13.26;100.00
51099;BME280;37146;48.210;16.234;2023-06-26T03:21:14;98840.75;;;13.36;100.00
51099;BME280;37146;48.210;16.234;2023-06-26T03:23:39;98832.81;;;13.35;100.00
51099;BME280;37146;48.210;16.234;2023-06-26T03:26:04;98835.50;;;13.35;100.00
51099;BME280;37146;48.210;16.234;2023-06-26T03:28:29;98841.78;;;13.21;100.00
51099;BME280;37146;48.210;16.234;2023-06-26T03:30:56;98832.53;;;13.25;100.00
51099;BME280;37146;48.210;16.234;2023-06-26T03:33:21;98839.72;;;13.39;100.00
51099;BME280;37146;48.210;16.234;2023-06-26T03:35:46;98836.19;;;13.24;100.00
51099;BME280;37146;48.210;16.234;2023-06-26T03:38:12;98838.38;;;13.32;100.00
51099;BME280;37146;48.210;16.234;2023-06-26T03:40:37;98838.50;;;13.30;100.00
51099;BME280;37146;48.210;16.234;2023-06-26T03:43:02;98840.75;;;13.36;100.00
51099;BME280;37146;48.210;16.234;2023-06-26T03:45:27;98846.22;;;13.49;100.00
51099;BME280;37146;48.210;16.234;2023-06-26T03:47:52;98850.19;;;13.29;100.00
51099;BME280;37146;48.210;16.234;2023-06-26T03:50:18;98850.72;;;13.34;100.00
51099;BME280;37146;48.210;16.234;2023-06-26T03:52:44;98853.97;;;13.54;100.00
51099;BME280;37146;48.210;16.234;2023-06-26T03:55:09;98852.88;;;13.43;100.00
51099;BME280;37146;48.210;16.234;2023-06-26T03:57:34;98856.53;;;13.42;100.00
51099;BME280;37146;48.210;16.234;2023-06-26T04:00:00;98849.31;;;13.43;100.00
51099;BME280;37146;48.210;16.234;2023-06-26T04:02:25;98852.28;;;13.38;100.00
51099;BME280;37146;48.210;16.234;2023-06-26T04:04:51;98854.53;;;13.59;100.00
51099;BME280;37146;48.210;16.234;2023-06-26T04:07:17;98854.88;;;13.67;100.00
51099;BME280;37146;48.210;16.234;2023-06-26T04:09:43;98857.63;;;13.53;100.00
51099;BME280;37146;48.210;16.234;2023-06-26T04:12:08;98861.28;;;13.52;100.00
51099;BME280;37146;48.210;16.234;2023-06-26T04:14:33;98856.81;;;13.65;100.00
51099;BME280;37146;48.210;16.234;2023-06-26T04:16:59;98853.84;;;13.83;100.00
51099;BME280;37146;48.210;16.234;2023-06-26T04:19:26;98847.38;;;13.85;100.00
51099;BME280;37146;48.210;16.234;2023-06-26T04:21:51;98857.44;;;13.96;100.00
51099;BME280;37146;48.210;16.234;2023-06-26T04:24:17;98854.59;;;13.85;100.00
51099;BME280;37146;48.210;16.234;2023-06-26T04:26:42;98851.47;;;13.91;100.00
51099;BME280;37146;48.210;16.234;2023-06-26T04:29:07;98857.28;;;13.85;100.00
51099;BME280;37146;48.210;16.234;2023-06-26T04:31:32;98853.22;;;13.92;100.00
51099;BME280;37146;48.210;16.234;2023-06-26T04:33:58;98851.53;;;14.04;100.00
51099;BME280;37146;48.210;16.234;2023-06-26T04:36:24;98853.47;;;14.02;100.00
51099;BME280;37146;48.210;16.234;2023-06-26T04:38:53;98846.34;;;14.14;100.00
51099;BME280;37146;48.210;16.234;2023-06-26T04:41:19;98848.09;;;14.15;100.00
51099;BME280;37146;48.210;16.234;2023-06-26T04:43:44;98843.47;;;14.30;100.00
51099;BME280;37146;48.210;16.234;2023-06-26T04:46:09;98848.88;;;14.43;100.00
51099;BME280;37146;48.210;16.234;2023-06-26T04:48:34;98857.75;;;14.56;100.00
51099;BME280;37146;48.210;16.234;2023-06-26T04:50:59;98853.69;;;14.63;100.00
51099;BME280;37146;48.210;16.234;2023-06-26T04:53:25;98865.75;;;14.71;100.00
51099;BME280;37146;48.210;16.234;2023-06-26T04:55:51;98867.69;;;14.68;100.00
51099;BME280;37146;48.210;16.234;2023-06-26T04:58:17;98865.34;;;14.77;100.00
51099;BME280;37146;48.210;16.234;2023-06-26T05:00:42;98869.44;;;14.82;100.00
51099;BME280;37146;48.210;16.234;2023-06-26T05:03:08;98868.31;;;14.98;100.00
51099;BME280;37146;48.210;16.234;2023-06-26T05:05:33;98862.03;;;15.10;100.00
51099;BME280;37146;48.210;16.234;2023-06-26T05:07:58;98870.56;;;15.04;100.00
51099;BME280;37146;48.210;16.234;2023-06-26T05:10:37;98863.97;;;15.21;100.00
51099;BME280;37146;48.210;16.234;2023-06-26T05:13:02;98862.81;;;15.37;100.00
51099;BME280;37146;48.210;16.234;2023-06-26T05:15:28;98867.63;;;15.44;100.00
51099;BME280;37146;48.210;16.234;2023-06-26T05:17:53;98865.63;;;15.59;100.00
51099;BME280;37146;48.210;16.234;2023-06-26T05:20:18;98864.94;;;15.69;100.00
51099;BME280;37146;48.210;16.234;2023-06-26T05:22:43;98865.94;;;15.79;100.00
51099;BME280;37146;48.210;16.234;2023-06-26T05:25:09;98860.00;;;15.87;100.00
51099;BME280;37146;48.210;16.234;2023-06-26T05:27:35;98859.91;;;16.00;100.00
51099;BME280;37146;48.210;16.234;2023-06-26T05:30:00;98861.06;;;16.08;100.00
51099;BME280;37146;48.210;16.234;2023-06-26T05:32:25;98864.91;;;16.17;100.00
51099;BME280;37146;48.210;16.234;2023-06-26T05:34:51;98852.41;;;16.28;100.00
51099;BME280;37146;48.210;16.234;2023-06-26T05:37:20;98855.97;;;16.39;100.00
51099;BME280;37146;48.210;16.234;2023-06-26T05:39:45;98859.56;;;16.51;100.00
51099;BME280;37146;48.210;16.234;2023-06-26T05:42:11;98854.88;;;16.65;100.00
51099;BME280;37146;48.210;16.234;2023-06-26T05:44:36;98858.84;;;16.83;100.00
51099;BME280;37146;48.210;16.234;2023-06-26T05:47:02;98865.72;;;16.99;100.00
51099;BME280;37146;48.210;16.234;2023-06-26T05:49:27;98866.47;;;17.01;100.00
51099;BME280;37146;48.210;16.234;2023-06-26T05:51:52;98856.91;;;17.08;100.00
51099;BME280;37146;48.210;16.234;2023-06-26T05:54:18;98858.69;;;17.30;100.00
51099;BME280;37146;48.210;16.234;2023-06-26T05:56:43;98853.63;;;17.37;100.00
51099;BME280;37146;48.210;16.234;2023-06-26T05:59:08;98846.00;;;17.31;100.00
51099;BME280;37146;48.210;16.234;2023-06-26T06:01:34;98853.38;;;17.40;100.00
51099;BME280;37146;48.210;16.234;2023-06-26T06:04:00;98845.84;;;17.55;100.00
51099;BME280;37146;48.210;16.234;2023-06-26T06:06:26;98850.38;;;17.87;100.00
51099;BME280;37146;48.210;16.234;2023-06-26T06:08:51;98847.34;;;17.81;100.00
51099;BME280;37146;48.210;16.234;2023-06-26T06:11:16;98839.16;;;17.92;100.00
51099;BME280;37146;48.210;16.234;2023-06-26T06:13:41;98838.41;;;18.01;100.00
51099;BME280;37146;48.210;16.234;2023-06-26T06:16:07;98841.06;;;18.13;100.00
51099;BME280;37146;48.210;16.234;2023-06-26T06:18:34;98842.22;;;18.20;100.00
51099;BME280;37146;48.210;16.234;2023-06-26T06:21:00;98851.56;;;18.27;100.00
51099;BME280;37146;48.210;16.234;2023-06-26T06:23:25;98845.59;;;18.33;100.00
51099;BME280;37146;48.210;16.234;2023-06-26T06:25:50;98840.28;;;18.53;100.00
51099;BME280;37146;48.210;16.234;2023-06-26T06:28:15;98847.06;;;18.68;100.00
51099;BME280;37146;48.210;16.234;2023-06-26T06:30:41;98852.00;;;18.84;100.00
51099;BME280;37146;48.210;16.234;2023-06-26T06:33:07;98851.78;;;18.97;100.00
51099;BME280;37146;48.210;16.234;2023-06-26T06:35:32;98859.00;;;19.18;100.00
51099;BME280;37146;48.210;16.234;2023-06-26T06:37:57;98849.63;;;19.32;99.92
51099;BME280;37146;48.210;16.234;2023-06-26T06:40:22;98847.75;;;19.33;100.00
51099;BME280;37146;48.210;16.234;2023-06-26T06:42:47;98845.66;;;19.56;99.60
51099;BME280;37146;48.210;16.234;2023-06-26T06:45:13;98848.34;;;19.46;98.62
51099;BME280;37146;48.210;16.234;2023-06-26T06:47:38;98842.22;;;19.54;98.53
51099;BME280;37146;48.210;16.234;2023-06-26T06:50:03;98844.81;;;19.85;100.00
51099;BME280;37146;48.210;16.234;2023-06-26T06:52:39;98844.84;;;19.95;100.00
51099;BME280;37146;48.210;16.234;2023-06-26T06:55:05;98840.28;;;20.05;100.00
51099;BME280;37146;48.210;16.234;2023-06-26T06:57:33;98842.66;;;20.28;98.59
51099;BME280;37146;48.210;16.234;2023-06-26T07:00:01;98848.50;;;20.23;100.00
51099;BME280;37146;48.210;16.234;2023-06-26T07:02:26;98835.09;;;20.21;94.85
51099;BME280;37146;48.210;16.234;2023-06-26T07:04:52;98841.41;;;20.12;88.54
51099;BME280;37146;48.210;16.234;2023-06-26T07:07:18;98837.06;;;20.39;88.18
51099;BME280;37146;48.210;16.234;2023-06-26T07:09:43;98832.19;;;20.43;88.01
51099;BME280;37146;48.210;16.234;2023-06-26T07:12:08;98836.75;;;20.42;89.75
51099;BME280;37146;48.210;16.234;2023-06-26T07:14:34;98841.31;;;20.51;84.64
51099;BME280;37146;48.210;16.234;2023-06-26T07:16:59;98842.13;;;20.81;88.64
51099;BME280;37146;48.210;16.234;2023-06-26T07:19:24;98841.09;;;20.73;82.21
51099;BME280;37146;48.210;16.234;2023-06-26T07:21:49;98839.13;;;20.75;81.50
51099;BME280;37146;48.210;16.234;2023-06-26T07:24:14;98834.53;;;20.75;79.00
51099;BME280;37146;48.210;16.234;2023-06-26T07:26:40;98838.69;;;21.35;80.71
51099;BME280;37146;48.210;16.234;2023-06-26T07:29:05;98838.72;;;21.25;78.60
51099;BME280;37146;48.210;16.234;2023-06-26T07:31:30;98844.72;;;21.29;81.97
51099;BME280;37146;48.210;16.234;2023-06-26T07:33:55;98847.56;;;21.37;79.45
51099;BME280;37146;48.210;16.234;2023-06-26T07:36:20;98842.72;;;21.59;80.35
51099;BME280;37146;48.210;16.234;2023-06-26T07:38:46;98841.72;;;21.50;77.86
51099;BME280;37146;48.210;16.234;2023-06-26T07:41:11;98847.06;;;21.70;76.81
51099;BME280;37146;48.210;16.234;2023-06-26T07:43:36;98841.44;;;21.89;75.75
51099;BME280;37146;48.210;16.234;2023-06-26T07:46:01;98837.22;;;22.13;76.88
51099;BME280;37146;48.210;16.234;2023-06-26T07:48:27;98840.97;;;22.12;71.85
51099;BME280;37146;48.210;16.234;2023-06-26T07:50:52;98838.84;;;22.24;73.95
51099;BME280;37146;48.210;16.234;2023-06-26T07:53:18;98841.03;;;22.20;70.82
51099;BME280;37146;48.210;16.234;2023-06-26T07:55:43;98839.22;;;22.29;69.88
51099;BME280;37146;48.210;16.234;2023-06-26T07:58:08;98838.25;;;22.38;70.30
51099;BME280;37146;48.210;16.234;2023-06-26T08:00:34;98842.56;;;22.67;71.54
51099;BME280;37146;48.210;16.234;2023-06-26T08:03:00;98839.53;;;22.70;67.56
51099;BME280;37146;48.210;16.234;2023-06-26T08:05:25;98841.88;;;22.65;68.22
51099;BME280;37146;48.210;16.234;2023-06-26T08:07:50;98840.00;;;22.66;65.46
51099;BME280;37146;48.210;16.234;2023-06-26T08:10:15;98839.84;;;22.67;66.39
51099;BME280;37146;48.210;16.234;2023-06-26T08:12:41;98835.47;;;22.83;66.71
51099;BME280;37146;48.210;16.234;2023-06-26T08:15:09;98841.84;;;22.92;65.44
51099;BME280;37146;48.210;16.234;2023-06-26T08:17:35;98833.81;;;23.25;66.79
51099;BME280;37146;48.210;16.234;2023-06-26T08:20:01;98836.81;;;23.48;67.03
51099;BME280;37146;48.210;16.234;2023-06-26T08:22:26;98834.59;;;23.60;65.96
51099;BME280;37146;48.210;16.234;2023-06-26T08:24:51;98839.59;;;23.81;67.61
51099;BME280;37146;48.210;16.234;2023-06-26T08:27:16;98835.13;;;23.72;65.20
51099;BME280;37146;48.210;16.234;2023-06-26T08:29:42;98838.22;;;23.93;64.07
51099;BME280;37146;48.210;16.234;2023-06-26T08:32:07;98830.72;;;24.04;63.50
51099;BME280;37146;48.210;16.234;2023-06-26T08:34:32;98832.78;;;24.18;61.35
51099;BME280;37146;48.210;16.234;2023-06-26T08:36:57;98835.34;;;24.20;61.49
51099;BME280;37146;48.210;16.234;2023-06-26T08:39:23;98831.03;;;24.50;62.70
51099;BME280;37146;48.210;16.234;2023-06-26T08:41:48;98830.53;;;24.47;60.39
51099;BME280;37146;48.210;16.234;2023-06-26T08:44:13;98830.88;;;24.44;58.40
51099;BME280;37146;48.210;16.234;2023-06-26T08:46:38;98825.69;;;24.65;57.07
51099;BME280;37146;48.210;16.234;2023-06-26T08:49:25;98829.13;;;24.84;56.68
51099;BME280;37146;48.210;16.234;2023-06-26T08:51:52;98828.81;;;24.62;56.42
51099;BME280;37146;48.210;16.234;2023-06-26T08:54:22;98825.66;;;24.90;58.50
51099;BME280;37146;48.210;16.234;2023-06-26T08:56:52;98822.09;;;24.90;56.19
51099;BME280;37146;48.210;16.234;2023-06-26T08:59:17;98817.66;;;24.89;57.62
51099;BME280;37146;48.210;16.234;2023-06-26T09:01:43;98819.56;;;25.20;57.34
51099;BME280;37146;48.210;16.234;2023-06-26T09:04:08;98814.09;;;25.20;55.27
51099;BME280;37146;48.210;16.234;2023-06-26T09:06:33;98809.47;;;25.52;55.37
51099;BME280;37146;48.210;16.234;2023-06-26T09:08:59;98818.31;;;25.62;55.18
51099;BME280;37146;48.210;16.234;2023-06-26T09:11:24;98808.31;;;25.69;57.43
51099;BME280;37146;48.210;16.234;2023-06-26T09:13:49;98813.34;;;25.34;54.48
51099;BME280;37146;48.210;16.234;2023-06-26T09:16:15;98803.94;;;25.60;54.58
51099;BME280;37146;48.210;16.234;2023-06-26T09:18:40;98795.38;;;26.10;55.14
51099;BME280;37146;48.210;16.234;2023-06-26T09:21:07;98803.34;;;25.96;54.02
51099;BME280;37146;48.210;16.234;2023-06-26T09:23:33;98806.47;;;26.08;52.78
51099;BME280;37146;48.210;16.234;2023-06-26T09:25:58;98800.44;;;26.36;52.90
51099;BME280;37146;48.210;16.234;2023-06-26T09:28:24;98801.38;;;26.28;52.91
51099;BME280;37146;48.210;16.234;2023-06-26T09:30:49;98801.69;;;26.63;54.44
51099;BME280;37146;48.210;16.234;2023-06-26T09:33:16;98807.16;;;26.33;51.83
51099;BME280;37146;48.210;16.234;2023-06-26T09:35:41;98806.94;;;26.88;54.16
51099;BME280;37146;48.210;16.234;2023-06-26T09:38:07;98803.63;;;26.93;53.29
51099;BME280;37146;48.210;16.234;2023-06-26T09:40:32;98799.31;;;27.20;52.06
51099;BME280;37146;48.210;16.234;2023-06-26T09:43:06;98804.97;;;27.34;51.91
51099;BME280;37146;48.210;16.234;2023-06-26T09:45:32;98794.63;;;27.36;53.14
51099;BME280;37146;48.210;16.234;2023-06-26T09:48:01;98795.13;;;27.39;52.06
51099;BME280;37146;48.210;16.234;2023-06-26T09:50:28;98793.91;;;27.64;51.10
51099;BME280;37146;48.210;16.234;2023-06-26T09:52:54;98789.00;;;26.77;49.47
51099;BME280;37146;48.210;16.234;2023-06-26T09:55:19;98803.34;;;27.76;48.85
51099;BME280;37146;48.210;16.234;2023-06-26T09:57:46;98791.34;;;27.62;49.63
51099;BME280;37146;48.210;16.234;2023-06-26T10:00:12;98794.50;;;27.81;48.02
51099;BME280;37146;48.210;16.234;2023-06-26T10:02:38;98791.28;;;27.99;49.39
51099;BME280;37146;48.210;16.234;2023-06-26T10:05:03;98788.88;;;28.11;48.12
51099;BME280;37146;48.210;16.234;2023-06-26T10:07:28;98783.94;;;28.28;47.95
51099;BME280;37146;48.210;16.234;2023-06-26T10:09:54;98789.22;;;28.58;48.42
51099;BME280;37146;48.210;16.234;2023-06-26T10:12:32;98772.09;;;28.27;47.15
51099;BME280;37146;48.210;16.234;2023-06-26T10:14:58;98778.16;;;28.44;46.79
51099;BME280;37146;48.210;16.234;2023-06-26T10:17:28;98775.41;;;28.44;45.66
51099;BME280;37146;48.210;16.234;2023-06-26T10:19:54;98766.75;;;28.54;45.49
51099;BME280;37146;48.210;16.234;2023-06-26T10:22:21;98768.31;;;29.05;46.16
51099;BME280;37146;48.210;16.234;2023-06-26T10:24:47;98764.91;;;28.96;45.05
51099;BME280;37146;48.210;16.234;2023-06-26T10:29:43;98765.41;;;29.20;44.37
51099;BME280;37146;48.210;16.234;2023-06-26T10:32:10;98765.72;;;29.45;45.22
51099;BME280;37146;48.210;16.234;2023-06-26T10:34:37;98756.19;;;29.55;43.19
51099;BME280;37146;48.210;16.234;2023-06-26T10:37:03;98766.44;;;29.81;43.11
51099;BME280;37146;48.210;16.234;2023-06-26T10:39:48;98762.88;;;30.01;42.47
51099;BME280;37146;48.210;16.234;2023-06-26T10:42:19;98752.91;;;30.00;41.79
51099;BME280;37146;48.210;16.234;2023-06-26T10:44:46;98757.13;;;30.16;41.95
51099;BME280;37146;48.210;16.234;2023-06-26T10:47:33;98749.69;;;30.23;40.96
51099;BME280;37146;48.210;16.234;2023-06-26T10:52:42;98747.34;;;29.93;40.57
51099;BME280;37146;48.210;16.234;2023-06-26T10:55:10;98749.75;;;30.95;40.87
51099;BME280;37146;48.210;16.234;2023-06-26T10:57:35;98744.78;;;29.58;41.19
51099;BME280;37146;48.210;16.234;2023-06-26T11:00:10;98733.38;;;30.01;41.30
51099;BME280;37146;48.210;16.234;2023-06-26T11:02:52;98749.91;;;30.01;40.86
51099;BME280;37146;48.210;16.234;2023-06-26T11:05:28;98747.34;;;30.53;40.66
51099;BME280;37146;48.210;16.234;2023-06-26T11:08:06;98745.16;;;30.76;40.87
51099;BME280;37146;48.210;16.234;2023-06-26T11:10:51;98747.34;;;30.27;40.35
51099;BME280;37146;48.210;16.234;2023-06-26T11:13:17;98754.81;;;31.05;39.97
51099;BME280;37146;48.210;16.234;2023-06-26T11:15:43;98734.06;;;30.89;41.15
51099;BME280;37146;48.210;16.234;2023-06-26T11:18:12;98731.22;;;29.63;40.88
51099;BME280;37146;48.210;16.234;2023-06-26T11:20:37;98742.44;;;30.69;39.80
51099;BME280;37146;48.210;16.234;2023-06-26T11:23:03;98737.78;;;31.22;41.10
51099;BME280;37146;48.210;16.234;2023-06-26T11:25:29;98752.19;;;31.69;39.24
51099;BME280;37146;48.210;16.234;2023-06-26T11:27:55;98744.25;;;30.95;41.19
51099;BME280;37146;48.210;16.234;2023-06-26T11:30:24;98739.09;;;31.12;40.72
51099;BME280;37146;48.210;16.234;2023-06-26T11:32:49;98738.78;;;31.34;40.38
51099;BME280;37146;48.210;16.234;2023-06-26T11:35:24;98723.09;;;31.53;37.93
51099;BME280;37146;48.210;16.234;2023-06-26T11:37:56;98719.44;;;31.91;38.40
51099;BME280;37146;48.210;16.234;2023-06-26T11:40:22;98723.44;;;32.65;38.05
51099;BME280;37146;48.210;16.234;2023-06-26T11:42:52;98727.16;;;33.45;36.12
51099;BME280;37146;48.210;16.234;2023-06-26T11:45:17;98718.88;;;33.69;36.16
51099;BME280;37146;48.210;16.234;2023-06-26T11:47:42;98724.38;;;34.35;35.57
51099;BME280;37146;48.210;16.234;2023-06-26T11:50:14;98734.00;;;33.42;35.91
51099;BME280;37146;48.210;16.234;2023-06-26T11:52:41;98717.41;;;31.48;40.04
51099;BME280;37146;48.210;16.234;2023-06-26T11:55:06;98714.84;;;31.14;39.03
51099;BME280;37146;48.210;16.234;2023-06-26T11:57:31;98717.16;;;31.18;39.51
51099;BME280;37146;48.210;16.234;2023-06-26T11:59:57;98710.47;;;31.39;39.05
51099;BME280;37146;48.210;16.234;2023-06-26T12:02:22;98706.94;;;31.25;38.34
51099;BME280;37146;48.210;16.234;2023-06-26T12:04:47;98710.13;;;30.76;40.33
51099;BME280;37146;48.210;16.234;2023-06-26T12:07:13;98716.91;;;31.26;40.22
51099;BME280;37146;48.210;16.234;2023-06-26T12:09:39;98709.28;;;31.21;39.38
51099;BME280;37146;48.210;16.234;2023-06-26T12:12:05;98712.25;;;31.26;40.78
51099;BME280;37146;48.210;16.234;2023-06-26T12:14:31;98707.78;;;31.25;41.56
51099;BME280;37146;48.210;16.234;2023-06-26T12:17:03;98705.03;;;31.25;39.71
51099;BME280;37146;48.210;16.234;2023-06-26T12:19:28;98699.44;;;30.93;41.19
51099;BME280;37146;48.210;16.234;2023-06-26T12:21:54;98700.44;;;31.44;40.34
51099;BME280;37146;48.210;16.234;2023-06-26T12:24:22;98697.72;;;30.92;40.79
51099;BME280;37146;48.210;16.234;2023-06-26T12:26:51;98689.59;;;30.45;41.82
51099;BME280;37146;48.210;16.234;2023-06-26T12:29:18;98689.78;;;30.50;42.48
51099;BME280;37146;48.210;16.234;2023-06-26T12:31:45;98694.59;;;30.82;42.02
51099;BME280;37146;48.210;16.234;2023-06-26T12:34:11;98692.06;;;30.80;42.27
51099;BME280;37146;48.210;16.234;2023-06-26T12:36:41;98688.44;;;31.25;41.61
51099;BME280;37146;48.210;16.234;2023-06-26T12:39:08;98678.97;;;30.49;40.42
51099;BME280;37146;48.210;16.234;2023-06-26T12:41:34;98676.09;;;30.17;42.91
51099;BME280;37146;48.210;16.234;2023-06-26T12:43:59;98680.69;;;30.50;41.97
51099;BME280;37146;48.210;16.234;2023-06-26T12:46:34;98667.66;;;29.98;43.66
51099;BME280;37146;48.210;16.234;2023-06-26T12:49:00;98679.38;;;30.52;42.12
51099;BME280;37146;48.210;16.234;2023-06-26T12:51:25;98671.41;;;30.24;43.35
51099;BME280;37146;48.210;16.234;2023-06-26T12:53:51;98672.44;;;30.30;43.47